Weather at Calamocha Airstrip [CLOSED]

Public forecast

Using degrees Celsius for public forecast. Weather courtesy of forecast.io.

Closest aviation weather report (METAR) to Calamocha Airstrip

Closest report is Teruel Airport, 30.2 nm (55.9 km) S. Retrieved 2021/04/11 12:00 UTC (2 minutes ago):

LETL 111200Z AUTO 22007KT 170V250 9999 SCT037 SCT049 14/06 Q1013

Closest aviation forecast (TAF) to Calamocha Airstrip

Closest forecast is Teruel Airport, 30.2 nm (55.9 km) S. Retrieved 2021/04/11 12:00 UTC (2 minutes ago):

TAF LETL 111100Z 1112/1212 26009KT 9999 BKN015 TX16/1114Z TN03/1206Z TEMPO 1112/1120 SHRA BKN010 FEW020TCU BECMG 1112/1115 35015KT